首页
METAR-TAF:

METAR-TAF

机场 :

布莱斯, 加利福尼亚州, 美国

纬度: 33-37-09N, 经度: 114-43-01W, 海拔: 121米

当前天气观测

该预报发布于1小时和1分钟前的05:52 UTC
风速6节,风向
温度 7°C
湿度 70%
气压 1006 hPa
能見度: 16.1公里
少量云层高于12000英尺

METAR: KBLH 260552Z AUTO 19006KT 10SM FEW120 07/02 A2971 RMK AO2 SLP060 60001 T00670017 10111 20067 53007

时间: 22:53 (06:53 UTC)

预报

该预报发布于1小时和12分钟前的05:41 UTC
预报有效从26日的 06点(UTC)到 27日的 06点(UTC)
风速6节,风向南转西南
能見度: 10公里
少量云层高于6000英尺
多云层高于10000英尺
从 26日的 1700点(UTC)
风速12节,风向西转西北
能見度: 10公里
少量云层高于10000英尺
从 26日的 2100点(UTC)
风速7节,风向南转西南
能見度: 10公里
天空无云

TAF: KBLH 260541Z 2606/2706 21006KT P6SM FEW060 BKN100 FM261700 30012KT P6SM FEW100 FM262100 21007KT P6SM SKC

超过4000个机场的气象观测和天气预报(METAR&TAF报告)。

可查询的气象台以黄色和红色小点在地图上表示。

将鼠标移到小点上方,可查看气象台名称。

然后点击查看天气观测和预报。

如需切换地图:点击带黑十字的绿色按钮放大地图;点击带横线的绿色按钮缩小地图;或者点击绿色箭头查看邻近地区的地图。


METAR-TAF: